sensor_id;sensor_type;location;lat;lon;timestamp;temperature;humidity
23405;DHT22;11875;49.356;2.718;2023-02-01T00:01:50;8.90;99.90
23405;DHT22;11875;49.356;2.718;2023-02-01T00:04:15;8.80;99.90
23405;DHT22;11875;49.356;2.718;2023-02-01T00:06:41;8.90;99.90
23405;DHT22;11875;49.356;2.718;2023-02-01T00:09:07;8.90;99.90
23405;DHT22;11875;49.356;2.718;2023-02-01T00:11:33;8.80;99.90
23405;DHT22;11875;49.356;2.718;2023-02-01T00:13:59;8.70;99.90
23405;DHT22;11875;49.356;2.718;2023-02-01T00:16:27;8.70;99.90
23405;DHT22;11875;49.356;2.718;2023-02-01T00:21:23;8.70;99.90
23405;DHT22;11875;49.356;2.718;2023-02-01T00:23:49;8.80;99.90
23405;DHT22;11875;49.356;2.718;2023-02-01T00:26:17;8.80;99.90
23405;DHT22;11875;49.356;2.718;2023-02-01T00:28:43;8.80;99.90
23405;DHT22;11875;49.356;2.718;2023-02-01T00:31:09;8.80;99.90
23405;DHT22;11875;49.356;2.718;2023-02-01T00:33:35;8.70;99.90
23405;DHT22;11875;49.356;2.718;2023-02-01T00:36:03;8.70;99.90
23405;DHT22;11875;49.356;2.718;2023-02-01T00:38:30;8.70;99.90
23405;DHT22;11875;49.356;2.718;2023-02-01T00:41:06;8.70;99.90
23405;DHT22;11875;49.356;2.718;2023-02-01T00:43:32;8.70;99.90
23405;DHT22;11875;49.356;2.718;2023-02-01T00:45:58;8.70;99.90
23405;DHT22;11875;49.356;2.718;2023-02-01T00:48:24;8.70;99.90
23405;DHT22;11875;49.356;2.718;2023-02-01T00:50:50;8.70;99.90
23405;DHT22;11875;49.356;2.718;2023-02-01T00:53:16;8.70;99.90
23405;DHT22;11875;49.356;2.718;2023-02-01T00:55:48;8.70;99.90
23405;DHT22;11875;49.356;2.718;2023-02-01T00:58:14;8.70;99.90
23405;DHT22;11875;49.356;2.718;2023-02-01T01:00:40;8.70;99.90
23405;DHT22;11875;49.356;2.718;2023-02-01T01:03:06;8.80;99.90
23405;DHT22;11875;49.356;2.718;2023-02-01T01:05:46;8.80;99.90
23405;DHT22;11875;49.356;2.718;2023-02-01T01:08:13;8.80;99.90
23405;DHT22;11875;49.356;2.718;2023-02-01T01:10:39;8.80;99.90
23405;DHT22;11875;49.356;2.718;2023-02-01T01:13:05;8.80;99.90
23405;DHT22;11875;49.356;2.718;2023-02-01T01:15:30;8.80;99.90
23405;DHT22;11875;49.356;2.718;2023-02-01T01:17:56;8.90;99.90
23405;DHT22;11875;49.356;2.718;2023-02-01T01:20:21;8.90;99.90
23405;DHT22;11875;49.356;2.718;2023-02-01T01:22:48;8.90;99.90
23405;DHT22;11875;49.356;2.718;2023-02-01T01:25:14;8.80;99.90
23405;DHT22;11875;49.356;2.718;2023-02-01T01:27:39;8.80;99.90
23405;DHT22;11875;49.356;2.718;2023-02-01T01:30:06;8.80;99.90
23405;DHT22;11875;49.356;2.718;2023-02-01T01:32:31;8.80;99.90
23405;DHT22;11875;49.356;2.718;2023-02-01T01:34:57;8.90;99.90
23405;DHT22;11875;49.356;2.718;2023-02-01T01:37:22;8.80;99.90
23405;DHT22;11875;49.356;2.718;2023-02-01T01:39:48;8.80;99.90
23405;DHT22;11875;49.356;2.718;2023-02-01T01:42:14;8.70;99.90
23405;DHT22;11875;49.356;2.718;2023-02-01T01:45:03;8.70;99.90
23405;DHT22;11875;49.356;2.718;2023-02-01T01:47:42;8.70;99.90
23405;DHT22;11875;49.356;2.718;2023-02-01T01:50:11;8.70;99.90
23405;DHT22;11875;49.356;2.718;2023-02-01T01:52:38;8.70;99.90
23405;DHT22;11875;49.356;2.718;2023-02-01T01:55:07;8.70;99.90
23405;DHT22;11875;49.356;2.718;2023-02-01T01:57:37;8.60;99.90
23405;DHT22;11875;49.356;2.718;2023-02-01T02:00:12;8.60;99.90
23405;DHT22;11875;49.356;2.718;2023-02-01T02:02:40;8.60;99.90
23405;DHT22;11875;49.356;2.718;2023-02-01T02:05:07;8.50;99.90
23405;DHT22;11875;49.356;2.718;2023-02-01T02:07:37;8.50;99.90
23405;DHT22;11875;49.356;2.718;2023-02-01T02:10:07;8.40;99.90
23405;DHT22;11875;49.356;2.718;2023-02-01T02:12:38;8.40;99.90
23405;DHT22;11875;49.356;2.718;2023-02-01T02:15:04;8.40;99.90
23405;DHT22;11875;49.356;2.718;2023-02-01T02:17:40;8.30;99.90
23405;DHT22;11875;49.356;2.718;2023-02-01T02:22:46;8.30;99.90
23405;DHT22;11875;49.356;2.718;2023-02-01T02:33:45;8.00;99.90
23405;DHT22;11875;49.356;2.718;2023-02-01T02:39:08;8.10;99.90
23405;DHT22;11875;49.356;2.718;2023-02-01T02:41:46;8.10;99.90
23405;DHT22;11875;49.356;2.718;2023-02-01T02:47:44;7.80;99.90
23405;DHT22;11875;49.356;2.718;2023-02-01T02:56:29;7.90;99.90
23405;DHT22;11875;49.356;2.718;2023-02-01T02:59:17;7.80;99.90
23405;DHT22;11875;49.356;2.718;2023-02-01T03:02:03;7.80;99.90
23405;DHT22;11875;49.356;2.718;2023-02-01T03:04:53;7.90;99.90
23405;DHT22;11875;49.356;2.718;2023-02-01T03:07:57;7.90;99.90
23405;DHT22;11875;49.356;2.718;2023-02-01T03:16:31;7.80;99.90
23405;DHT22;11875;49.356;2.718;2023-02-01T03:24:38;7.90;99.90
23405;DHT22;11875;49.356;2.718;2023-02-01T03:32:31;8.10;99.90
23405;DHT22;11875;49.356;2.718;2023-02-01T03:35:23;8.00;99.90
23405;DHT22;11875;49.356;2.718;2023-02-01T03:37:53;8.10;99.90
23405;DHT22;11875;49.356;2.718;2023-02-01T03:40:22;8.10;99.90
23405;DHT22;11875;49.356;2.718;2023-02-01T03:42:51;8.10;99.90
23405;DHT22;11875;49.356;2.718;2023-02-01T03:45:27;8.10;99.90
23405;DHT22;11875;49.356;2.718;2023-02-01T03:47:56;8.00;99.90
23405;DHT22;11875;49.356;2.718;2023-02-01T03:50:26;8.00;99.90
23405;DHT22;11875;49.356;2.718;2023-02-01T03:53:08;8.00;99.90
23405;DHT22;11875;49.356;2.718;2023-02-01T03:55:36;7.90;99.90
23405;DHT22;11875;49.356;2.718;2023-02-01T04:00:34;7.80;99.90
23405;DHT22;11875;49.356;2.718;2023-02-01T04:03:02;7.80;99.90
23405;DHT22;11875;49.356;2.718;2023-02-01T04:05:28;7.70;99.90
23405;DHT22;11875;49.356;2.718;2023-02-01T04:07:53;7.70;99.90
23405;DHT22;11875;49.356;2.718;2023-02-01T04:10:19;7.60;99.90
23405;DHT22;11875;49.356;2.718;2023-02-01T04:12:45;7.60;99.90
23405;DHT22;11875;49.356;2.718;2023-02-01T04:15:11;7.60;99.90
23405;DHT22;11875;49.356;2.718;2023-02-01T04:17:36;7.70;99.90
23405;DHT22;11875;49.356;2.718;2023-02-01T04:20:02;7.70;99.90
23405;DHT22;11875;49.356;2.718;2023-02-01T04:22:27;7.80;99.90
23405;DHT22;11875;49.356;2.718;2023-02-01T04:24:54;7.70;99.90
23405;DHT22;11875;49.356;2.718;2023-02-01T04:27:19;7.60;99.90
23405;DHT22;11875;49.356;2.718;2023-02-01T04:29:45;7.60;99.90
23405;DHT22;11875;49.356;2.718;2023-02-01T04:32:11;7.60;99.90
23405;DHT22;11875;49.356;2.718;2023-02-01T04:34:37;7.60;99.90
23405;DHT22;11875;49.356;2.718;2023-02-01T04:37:02;7.60;99.90
23405;DHT22;11875;49.356;2.718;2023-02-01T04:39:28;7.60;99.90
23405;DHT22;11875;49.356;2.718;2023-02-01T04:41:53;7.60;99.90
23405;DHT22;11875;49.356;2.718;2023-02-01T04:44:19;7.60;99.90
23405;DHT22;11875;49.356;2.718;2023-02-01T04:46:46;7.60;99.90
23405;DHT22;11875;49.356;2.718;2023-02-01T04:49:13;7.60;99.90
23405;DHT22;11875;49.356;2.718;2023-02-01T04:51:39;7.50;99.90
23405;DHT22;11875;49.356;2.718;2023-02-01T04:54:05;7.40;99.90
23405;DHT22;11875;49.356;2.718;2023-02-01T04:56:30;7.20;99.90
23405;DHT22;11875;49.356;2.718;2023-02-01T04:58:56;7.10;99.90
23405;DHT22;11875;49.356;2.718;2023-02-01T05:01:22;7.10;99.90
23405;DHT22;11875;49.356;2.718;2023-02-01T05:03:50;7.10;99.90
23405;DHT22;11875;49.356;2.718;2023-02-01T05:06:15;6.90;99.90
23405;DHT22;11875;49.356;2.718;2023-02-01T05:08:41;6.90;99.90
23405;DHT22;11875;49.356;2.718;2023-02-01T05:11:07;7.00;99.90
23405;DHT22;11875;49.356;2.718;2023-02-01T05:13:52;6.90;99.90
23405;DHT22;11875;49.356;2.718;2023-02-01T05:16:18;7.00;99.90
23405;DHT22;11875;49.356;2.718;2023-02-01T05:18:43;7.10;99.90
23405;DHT22;11875;49.356;2.718;2023-02-01T05:21:09;7.10;99.90
23405;DHT22;11875;49.356;2.718;2023-02-01T05:23:35;6.90;99.90
23405;DHT22;11875;49.356;2.718;2023-02-01T05:26:20;6.90;99.90
23405;DHT22;11875;49.356;2.718;2023-02-01T05:28:46;6.80;99.90
23405;DHT22;11875;49.356;2.718;2023-02-01T05:31:12;6.70;99.90
23405;DHT22;11875;49.356;2.718;2023-02-01T05:33:37;6.70;99.90
23405;DHT22;11875;49.356;2.718;2023-02-01T05:36:03;6.80;99.90
23405;DHT22;11875;49.356;2.718;2023-02-01T05:38:29;7.00;99.90
23405;DHT22;11875;49.356;2.718;2023-02-01T05:40:57;7.10;99.90
23405;DHT22;11875;49.356;2.718;2023-02-01T05:43:23;7.20;99.90
23405;DHT22;11875;49.356;2.718;2023-02-01T05:45:49;7.30;99.90
23405;DHT22;11875;49.356;2.718;2023-02-01T05:48:14;7.40;99.90
23405;DHT22;11875;49.356;2.718;2023-02-01T05:50:40;7.40;99.90
23405;DHT22;11875;49.356;2.718;2023-02-01T05:53:05;7.50;99.90
23405;DHT22;11875;49.356;2.718;2023-02-01T05:55:32;7.30;99.90
23405;DHT22;11875;49.356;2.718;2023-02-01T05:57:57;7.30;99.90
23405;DHT22;11875;49.356;2.718;2023-02-01T06:00:23;7.30;99.90
23405;DHT22;11875;49.356;2.718;2023-02-01T06:02:49;7.40;99.90
23405;DHT22;11875;49.356;2.718;2023-02-01T06:05:15;7.50;99.90
23405;DHT22;11875;49.356;2.718;2023-02-01T06:07:40;7.40;99.90
23405;DHT22;11875;49.356;2.718;2023-02-01T06:10:06;7.40;99.90
23405;DHT22;11875;49.356;2.718;2023-02-01T06:12:32;7.30;99.90
23405;DHT22;11875;49.356;2.718;2023-02-01T06:14:58;7.10;99.90
23405;DHT22;11875;49.356;2.718;2023-02-01T06:17:24;7.00;99.90
23405;DHT22;11875;49.356;2.718;2023-02-01T06:19:50;7.00;99.90
23405;DHT22;11875;49.356;2.718;2023-02-01T06:22:16;7.00;99.90
23405;DHT22;11875;49.356;2.718;2023-02-01T06:24:42;7.30;99.90
23405;DHT22;11875;49.356;2.718;2023-02-01T06:27:08;7.40;99.90
23405;DHT22;11875;49.356;2.718;2023-02-01T06:29:34;7.30;99.90
23405;DHT22;11875;49.356;2.718;2023-02-01T06:32:00;7.50;99.90
23405;DHT22;11875;49.356;2.718;2023-02-01T06:34:26;7.60;99.90
23405;DHT22;11875;49.356;2.718;2023-02-01T06:36:51;7.60;99.90
23405;DHT22;11875;49.356;2.718;2023-02-01T06:39:17;7.70;99.90
23405;DHT22;11875;49.356;2.718;2023-02-01T06:41:47;7.70;99.90
23405;DHT22;11875;49.356;2.718;2023-02-01T06:44:14;7.70;99.90
23405;DHT22;11875;49.356;2.718;2023-02-01T06:46:40;7.70;99.90
23405;DHT22;11875;49.356;2.718;2023-02-01T06:49:05;7.70;99.90
23405;DHT22;11875;49.356;2.718;2023-02-01T06:51:31;7.70;99.90
23405;DHT22;11875;49.356;2.718;2023-02-01T06:53:57;7.60;99.90
23405;DHT22;11875;49.356;2.718;2023-02-01T06:56:23;7.60;99.90
23405;DHT22;11875;49.356;2.718;2023-02-01T06:58:49;7.50;99.90
23405;DHT22;11875;49.356;2.718;2023-02-01T07:01:15;7.50;99.90
23405;DHT22;11875;49.356;2.718;2023-02-01T07:03:42;7.40;99.90
23405;DHT22;11875;49.356;2.718;2023-02-01T07:06:08;7.30;99.90
23405;DHT22;11875;49.356;2.718;2023-02-01T07:08:37;7.40;99.90
23405;DHT22;11875;49.356;2.718;2023-02-01T07:11:08;7.40;99.90
23405;DHT22;11875;49.356;2.718;2023-02-01T07:13:34;7.30;99.90
23405;DHT22;11875;49.356;2.718;2023-02-01T07:16:01;7.20;99.90
23405;DHT22;11875;49.356;2.718;2023-02-01T07:18:28;7.20;99.90
23405;DHT22;11875;49.356;2.718;2023-02-01T07:20:55;7.10;99.90
23405;DHT22;11875;49.356;2.718;2023-02-01T07:23:21;7.10;99.90
23405;DHT22;11875;49.356;2.718;2023-02-01T07:25:47;7.10;99.90
23405;DHT22;11875;49.356;2.718;2023-02-01T07:28:13;7.10;99.90
23405;DHT22;11875;49.356;2.718;2023-02-01T07:30:39;7.20;99.90
23405;DHT22;11875;49.356;2.718;2023-02-01T07:33:04;7.00;99.90
23405;DHT22;11875;49.356;2.718;2023-02-01T07:35:31;7.00;99.90
23405;DHT22;11875;49.356;2.718;2023-02-01T07:37:57;6.90;99.90
23405;DHT22;11875;49.356;2.718;2023-02-01T07:40:23;6.90;99.90
23405;DHT22;11875;49.356;2.718;2023-02-01T07:42:54;6.80;99.90
23405;DHT22;11875;49.356;2.718;2023-02-01T07:45:21;6.90;99.90
23405;DHT22;11875;49.356;2.718;2023-02-01T07:47:47;6.90;99.90
23405;DHT22;11875;49.356;2.718;2023-02-01T07:50:13;7.00;99.90
23405;DHT22;11875;49.356;2.718;2023-02-01T07:52:39;7.00;99.90
23405;DHT22;11875;49.356;2.718;2023-02-01T07:55:06;7.00;99.90
23405;DHT22;11875;49.356;2.718;2023-02-01T07:57:32;7.00;99.90
23405;DHT22;11875;49.356;2.718;2023-02-01T07:59:57;7.00;99.90
23405;DHT22;11875;49.356;2.718;2023-02-01T08:02:42;6.90;99.90
23405;DHT22;11875;49.356;2.718;2023-02-01T08:05:08;6.90;99.90
23405;DHT22;11875;49.356;2.718;2023-02-01T08:07:33;6.80;99.90
23405;DHT22;11875;49.356;2.718;2023-02-01T08:09:59;6.80;99.90
23405;DHT22;11875;49.356;2.718;2023-02-01T08:12:25;6.80;99.90
23405;DHT22;11875;49.356;2.718;2023-02-01T08:14:52;6.90;99.90
23405;DHT22;11875;49.356;2.718;2023-02-01T08:17:19;7.00;99.90
23405;DHT22;11875;49.356;2.718;2023-02-01T08:19:45;7.00;99.90
23405;DHT22;11875;49.356;2.718;2023-02-01T08:22:11;7.00;99.90
23405;DHT22;11875;49.356;2.718;2023-02-01T08:24:36;7.00;99.90
23405;DHT22;11875;49.356;2.718;2023-02-01T08:27:06;7.00;99.90
23405;DHT22;11875;49.356;2.718;2023-02-01T08:29:31;7.00;99.90
23405;DHT22;11875;49.356;2.718;2023-02-01T08:31:58;7.10;99.90
23405;DHT22;11875;49.356;2.718;2023-02-01T08:34:24;7.10;99.90
23405;DHT22;11875;49.356;2.718;2023-02-01T08:36:49;6.90;99.90
23405;DHT22;11875;49.356;2.718;2023-02-01T08:39:17;7.10;99.90
23405;DHT22;11875;49.356;2.718;2023-02-01T08:41:42;7.40;99.90
23405;DHT22;11875;49.356;2.718;2023-02-01T08:44:28;7.70;99.90
23405;DHT22;11875;49.356;2.718;2023-02-01T08:46:53;8.10;99.90
23405;DHT22;11875;49.356;2.718;2023-02-01T08:49:19;8.30;99.90
23405;DHT22;11875;49.356;2.718;2023-02-01T08:51:45;8.50;99.90
23405;DHT22;11875;49.356;2.718;2023-02-01T08:54:10;8.50;99.90
23405;DHT22;11875;49.356;2.718;2023-02-01T08:56:36;8.70;99.90
23405;DHT22;11875;49.356;2.718;2023-02-01T08:59:01;9.00;99.90
23405;DHT22;11875;49.356;2.718;2023-02-01T09:01:27;9.20;99.90
23405;DHT22;11875;49.356;2.718;2023-02-01T09:03:53;9.20;99.90
23405;DHT22;11875;49.356;2.718;2023-02-01T09:06:18;9.20;99.90
23405;DHT22;11875;49.356;2.718;2023-02-01T09:08:44;9.20;99.90
23405;DHT22;11875;49.356;2.718;2023-02-01T09:11:15;9.20;99.90
23405;DHT22;11875;49.356;2.718;2023-02-01T09:13:41;9.40;99.90
23405;DHT22;11875;49.356;2.718;2023-02-01T09:16:08;9.30;99.90
23405;DHT22;11875;49.356;2.718;2023-02-01T09:18:34;9.20;99.90
23405;DHT22;11875;49.356;2.718;2023-02-01T09:21:04;9.20;99.90
23405;DHT22;11875;49.356;2.718;2023-02-01T09:23:29;8.90;99.90
23405;DHT22;11875;49.356;2.718;2023-02-01T09:26:01;8.80;99.90
23405;DHT22;11875;49.356;2.718;2023-02-01T09:28:28;8.60;99.90
23405;DHT22;11875;49.356;2.718;2023-02-01T09:30:58;8.60;99.90
23405;DHT22;11875;49.356;2.718;2023-02-01T09:33:24;8.50;99.90
23405;DHT22;11875;49.356;2.718;2023-02-01T09:35:56;8.50;99.90
23405;DHT22;11875;49.356;2.718;2023-02-01T09:38:21;8.50;99.90
23405;DHT22;11875;49.356;2.718;2023-02-01T09:40:47;8.50;99.90
23405;DHT22;11875;49.356;2.718;2023-02-01T09:48:38;8.50;99.90
23405;DHT22;11875;49.356;2.718;2023-02-01T09:51:18;8.60;99.90
23405;DHT22;11875;49.356;2.718;2023-02-01T09:53:48;8.60;99.90
23405;DHT22;11875;49.356;2.718;2023-02-01T09:56:22;8.50;99.90
23405;DHT22;11875;49.356;2.718;2023-02-01T10:01:38;8.50;99.90
23405;DHT22;11875;49.356;2.718;2023-02-01T10:04:10;8.70;99.90
23405;DHT22;11875;49.356;2.718;2023-02-01T10:14:45;9.40;99.90
23405;DHT22;11875;49.356;2.718;2023-02-01T10:23:14;9.40;99.90
23405;DHT22;11875;49.356;2.718;2023-02-01T10:26:06;9.40;99.90
23405;DHT22;11875;49.356;2.718;2023-02-01T10:28:37;9.30;99.90
23405;DHT22;11875;49.356;2.718;2023-02-01T10:31:04;9.30;99.90
23405;DHT22;11875;49.356;2.718;2023-02-01T10:33:34;9.40;99.90
23405;DHT22;11875;49.356;2.718;2023-02-01T10:36:16;9.60;99.90
23405;DHT22;11875;49.356;2.718;2023-02-01T10:38:45;9.80;99.90
23405;DHT22;11875;49.356;2.718;2023-02-01T10:41:19;9.80;99.90
23405;DHT22;11875;49.356;2.718;2023-02-01T10:43:49;9.70;99.90
23405;DHT22;11875;49.356;2.718;2023-02-01T10:46:18;9.90;99.90
23405;DHT22;11875;49.356;2.718;2023-02-01T10:48:44;10.00;99.90
23405;DHT22;11875;49.356;2.718;2023-02-01T10:51:51;10.20;99.90
23405;DHT22;11875;49.356;2.718;2023-02-01T10:54:17;10.30;99.90
23405;DHT22;11875;49.356;2.718;2023-02-01T10:56:46;10.30;99.90
23405;DHT22;11875;49.356;2.718;2023-02-01T10:59:20;10.30;99.90
23405;DHT22;11875;49.356;2.718;2023-02-01T11:01:48;10.20;99.90
23405;DHT22;11875;49.356;2.718;2023-02-01T11:04:19;10.30;99.90
23405;DHT22;11875;49.356;2.718;2023-02-01T11:06:53;10.40;99.90
23405;DHT22;11875;49.356;2.718;2023-02-01T11:14:22;10.40;99.90
23405;DHT22;11875;49.356;2.718;2023-02-01T11:16:58;10.30;99.90
23405;DHT22;11875;49.356;2.718;2023-02-01T11:19:25;10.30;99.90
23405;DHT22;11875;49.356;2.718;2023-02-01T11:21:55;10.30;99.90
23405;DHT22;11875;49.356;2.718;2023-02-01T11:24:25;10.30;99.90
23405;DHT22;11875;49.356;2.718;2023-02-01T11:26:56;10.20;99.90
23405;DHT22;11875;49.356;2.718;2023-02-01T11:29:22;10.20;99.90
23405;DHT22;11875;49.356;2.718;2023-02-01T11:31:56;10.20;99.90
23405;DHT22;11875;49.356;2.718;2023-02-01T11:34:30;10.10;99.90
23405;DHT22;11875;49.356;2.718;2023-02-01T11:37:00;10.20;99.90
23405;DHT22;11875;49.356;2.718;2023-02-01T11:39:33;10.30;99.90
23405;DHT22;11875;49.356;2.718;2023-02-01T11:42:14;10.30;99.90
23405;DHT22;11875;49.356;2.718;2023-02-01T11:44:42;10.30;99.90
23405;DHT22;11875;49.356;2.718;2023-02-01T11:49:54;10.40;99.90
23405;DHT22;11875;49.356;2.718;2023-02-01T11:57:35;10.20;99.90
23405;DHT22;11875;49.356;2.718;2023-02-01T12:00:32;10.30;99.90
23405;DHT22;11875;49.356;2.718;2023-02-01T12:12:11;10.40;99.90
23405;DHT22;11875;49.356;2.718;2023-02-01T12:14:44;10.40;99.90
23405;DHT22;11875;49.356;2.718;2023-02-01T12:20:09;10.60;99.90
23405;DHT22;11875;49.356;2.718;2023-02-01T12:26:12;10.90;99.90
23405;DHT22;11875;49.356;2.718;2023-02-01T12:38:03;10.80;99.90
23405;DHT22;11875;49.356;2.718;2023-02-01T12:43:24;10.80;99.90
23405;DHT22;11875;49.356;2.718;2023-02-01T12:46:33;10.70;99.90
23405;DHT22;11875;49.356;2.718;2023-02-01T12:49:46;10.80;99.90
23405;DHT22;11875;49.356;2.718;2023-02-01T12:52:38;10.80;99.90
23405;DHT22;11875;49.356;2.718;2023-02-01T12:57:35;10.80;99.90
23405;DHT22;11875;49.356;2.718;2023-02-01T13:00:07;10.80;99.90
23405;DHT22;11875;49.356;2.718;2023-02-01T13:05:51;10.90;99.90
23405;DHT22;11875;49.356;2.718;2023-02-01T13:08:43;10.90;99.90
23405;DHT22;11875;49.356;2.718;2023-02-01T13:11:15;10.90;99.90
23405;DHT22;11875;49.356;2.718;2023-02-01T13:16:42;11.10;99.90
23405;DHT22;11875;49.356;2.718;2023-02-01T13:19:25;11.10;99.90
23405;DHT22;11875;49.356;2.718;2023-02-01T13:22:01;11.10;99.90
23405;DHT22;11875;49.356;2.718;2023-02-01T13:24:43;11.10;99.90
23405;DHT22;11875;49.356;2.718;2023-02-01T13:27:15;11.10;99.90
23405;DHT22;11875;49.356;2.718;2023-02-01T13:30:03;11.10;99.90
23405;DHT22;11875;49.356;2.718;2023-02-01T13:32:52;11.10;99.90
23405;DHT22;11875;49.356;2.718;2023-02-01T13:40:46;10.90;99.90
23405;DHT22;11875;49.356;2.718;2023-02-01T13:43:23;11.00;99.90
23405;DHT22;11875;49.356;2.718;2023-02-01T13:45:54;11.00;99.90
23405;DHT22;11875;49.356;2.718;2023-02-01T13:48:38;11.10;99.90
23405;DHT22;11875;49.356;2.718;2023-02-01T13:51:04;11.10;99.90
23405;DHT22;11875;49.356;2.718;2023-02-01T13:53:34;10.90;99.90
23405;DHT22;11875;49.356;2.718;2023-02-01T13:58:41;11.10;99.90
23405;DHT22;11875;49.356;2.718;2023-02-01T14:06:41;11.00;99.90
23405;DHT22;11875;49.356;2.718;2023-02-01T14:11:56;11.10;99.90
23405;DHT22;11875;49.356;2.718;2023-02-01T14:19:24;11.20;99.90
23405;DHT22;11875;49.356;2.718;2023-02-01T14:21:55;11.20;99.90
23405;DHT22;11875;49.356;2.718;2023-02-01T14:24:32;11.20;99.90
23405;DHT22;11875;49.356;2.718;2023-02-01T14:27:00;11.20;99.90
23405;DHT22;11875;49.356;2.718;2023-02-01T14:29:32;11.20;99.90
23405;DHT22;11875;49.356;2.718;2023-02-01T14:32:20;11.20;99.90
23405;DHT22;11875;49.356;2.718;2023-02-01T14:44:40;11.40;99.90
23405;DHT22;11875;49.356;2.718;2023-02-01T14:47:09;11.20;99.90
23405;DHT22;11875;49.356;2.718;2023-02-01T14:49:47;11.30;99.90
23405;DHT22;11875;49.356;2.718;2023-02-01T14:52:17;11.20;99.90
23405;DHT22;11875;49.356;2.718;2023-02-01T14:54:52;11.20;99.90
23405;DHT22;11875;49.356;2.718;2023-02-01T14:57:21;11.30;99.90
23405;DHT22;11875;49.356;2.718;2023-02-01T14:59:49;11.20;99.90
23405;DHT22;11875;49.356;2.718;2023-02-01T15:02:21;11.20;99.90
23405;DHT22;11875;49.356;2.718;2023-02-01T15:04:54;11.40;99.90
23405;DHT22;11875;49.356;2.718;2023-02-01T15:07:21;11.40;99.90
23405;DHT22;11875;49.356;2.718;2023-02-01T15:09:48;11.50;99.90
23405;DHT22;11875;49.356;2.718;2023-02-01T15:12:22;11.30;99.90
23405;DHT22;11875;49.356;2.718;2023-02-01T15:17:36;11.20;99.90
23405;DHT22;11875;49.356;2.718;2023-02-01T15:22:29;11.20;99.90
23405;DHT22;11875;49.356;2.718;2023-02-01T15:25:00;11.10;99.90
23405;DHT22;11875;49.356;2.718;2023-02-01T15:27:27;11.10;99.90
23405;DHT22;11875;49.356;2.718;2023-02-01T15:29:53;11.10;99.90
23405;DHT22;11875;49.356;2.718;2023-02-01T15:32:38;11.00;99.90
23405;DHT22;11875;49.356;2.718;2023-02-01T15:35:05;11.00;99.90
23405;DHT22;11875;49.356;2.718;2023-02-01T15:37:51;11.00;99.90
23405;DHT22;11875;49.356;2.718;2023-02-01T15:40:21;10.90;99.90
23405;DHT22;11875;49.356;2.718;2023-02-01T15:42:52;10.90;99.90
23405;DHT22;11875;49.356;2.718;2023-02-01T15:45:21;10.80;99.90
23405;DHT22;11875;49.356;2.718;2023-02-01T15:47:51;10.70;99.90
23405;DHT22;11875;49.356;2.718;2023-02-01T15:50:18;10.50;99.90
23405;DHT22;11875;49.356;2.718;2023-02-01T15:52:47;10.50;99.90
23405;DHT22;11875;49.356;2.718;2023-02-01T15:55:38;10.40;99.90
23405;DHT22;11875;49.356;2.718;2023-02-01T15:58:14;10.40;99.90
23405;DHT22;11875;49.356;2.718;2023-02-01T16:00:46;10.40;99.90
23405;DHT22;11875;49.356;2.718;2023-02-01T16:03:37;10.50;99.90
23405;DHT22;11875;49.356;2.718;2023-02-01T16:06:31;10.50;99.90
23405;DHT22;11875;49.356;2.718;2023-02-01T16:11:39;10.50;99.90
23405;DHT22;11875;49.356;2.718;2023-02-01T16:14:05;10.60;99.90
23405;DHT22;11875;49.356;2.718;2023-02-01T16:16:30;10.60;99.90
23405;DHT22;11875;49.356;2.718;2023-02-01T16:18:56;10.60;99.90
23405;DHT22;11875;49.356;2.718;2023-02-01T16:21:22;10.50;99.90
23405;DHT22;11875;49.356;2.718;2023-02-01T16:23:51;10.40;99.90
23405;DHT22;11875;49.356;2.718;2023-02-01T16:26:18;10.40;99.90
23405;DHT22;11875;49.356;2.718;2023-02-01T16:28:44;10.30;99.90
23405;DHT22;11875;49.356;2.718;2023-02-01T16:31:14;10.30;99.90
23405;DHT22;11875;49.356;2.718;2023-02-01T16:33:48;10.20;99.90
23405;DHT22;11875;49.356;2.718;2023-02-01T16:36:14;10.20;99.90
23405;DHT22;11875;49.356;2.718;2023-02-01T16:38:41;10.20;99.90
23405;DHT22;11875;49.356;2.718;2023-02-01T16:41:06;10.10;99.90
23405;DHT22;11875;49.356;2.718;2023-02-01T16:43:34;10.10;99.90
23405;DHT22;11875;49.356;2.718;2023-02-01T16:46:00;10.30;99.90
23405;DHT22;11875;49.356;2.718;2023-02-01T16:48:34;10.20;99.90
23405;DHT22;11875;49.356;2.718;2023-02-01T16:51:03;10.20;99.90
23405;DHT22;11875;49.356;2.718;2023-02-01T16:53:32;10.30;99.90
23405;DHT22;11875;49.356;2.718;2023-02-01T16:55:58;10.20;99.90
23405;DHT22;11875;49.356;2.718;2023-02-01T16:58:25;10.20;99.90
23405;DHT22;11875;49.356;2.718;2023-02-01T17:00:51;10.20;99.90
23405;DHT22;11875;49.356;2.718;2023-02-01T17:03:17;10.20;99.90
23405;DHT22;11875;49.356;2.718;2023-02-01T17:05:47;10.30;99.90
23405;DHT22;11875;49.356;2.718;2023-02-01T17:08:18;10.40;99.90
23405;DHT22;11875;49.356;2.718;2023-02-01T17:10:45;10.40;99.90
23405;DHT22;11875;49.356;2.718;2023-02-01T17:13:15;10.40;99.90
23405;DHT22;11875;49.356;2.718;2023-02-01T17:15:47;10.40;99.90
23405;DHT22;11875;49.356;2.718;2023-02-01T17:18:15;10.50;99.90
23405;DHT22;11875;49.356;2.718;2023-02-01T17:20:42;10.50;99.90
23405;DHT22;11875;49.356;2.718;2023-02-01T17:23:08;10.60;99.90
23405;DHT22;11875;49.356;2.718;2023-02-01T17:25:34;10.60;99.90
23405;DHT22;11875;49.356;2.718;2023-02-01T17:28:00;10.50;99.90
23405;DHT22;11875;49.356;2.718;2023-02-01T17:30:25;10.60;99.90
23405;DHT22;11875;49.356;2.718;2023-02-01T17:32:51;10.60;99.90
23405;DHT22;11875;49.356;2.718;2023-02-01T17:35:22;10.60;99.90
23405;DHT22;11875;49.356;2.718;2023-02-01T17:37:49;10.60;99.90
23405;DHT22;11875;49.356;2.718;2023-02-01T17:40:16;10.60;99.90
23405;DHT22;11875;49.356;2.718;2023-02-01T17:42:41;10.40;99.90
23405;DHT22;11875;49.356;2.718;2023-02-01T17:45:32;10.40;99.90
23405;DHT22;11875;49.356;2.718;2023-02-01T17:47:58;10.40;99.90
23405;DHT22;11875;49.356;2.718;2023-02-01T17:50:26;10.50;99.90
23405;DHT22;11875;49.356;2.718;2023-02-01T17:52:52;10.50;99.90
23405;DHT22;11875;49.356;2.718;2023-02-01T17:55:20;10.50;99.90
23405;DHT22;11875;49.356;2.718;2023-02-01T17:57:48;10.50;99.90
23405;DHT22;11875;49.356;2.718;2023-02-01T18:00:15;10.50;99.90
23405;DHT22;11875;49.356;2.718;2023-02-01T18:02:43;10.50;99.90
23405;DHT22;11875;49.356;2.718;2023-02-01T18:05:20;10.60;99.90
23405;DHT22;11875;49.356;2.718;2023-02-01T18:07:47;10.60;99.90
23405;DHT22;11875;49.356;2.718;2023-02-01T18:10:13;10.60;99.90
23405;DHT22;11875;49.356;2.718;2023-02-01T18:12:39;10.70;99.90
23405;DHT22;11875;49.356;2.718;2023-02-01T18:15:32;10.60;99.90
23405;DHT22;11875;49.356;2.718;2023-02-01T18:17:57;10.50;99.90
23405;DHT22;11875;49.356;2.718;2023-02-01T18:20:24;10.50;99.90
23405;DHT22;11875;49.356;2.718;2023-02-01T18:22:51;10.50;99.90
23405;DHT22;11875;49.356;2.718;2023-02-01T18:25:25;10.60;99.90
23405;DHT22;11875;49.356;2.718;2023-02-01T18:27:53;10.60;99.90
23405;DHT22;11875;49.356;2.718;2023-02-01T18:30:21;10.70;99.90
23405;DHT22;11875;49.356;2.718;2023-02-01T18:32:47;10.60;99.90